createdAt,value
2018-03-15T00:01:16.182Z,93338.19
2018-03-15T00:03:43.829Z,93337.83
2018-03-15T00:06:11.476Z,93332.10
2018-03-15T00:08:39.060Z,93338.25
2018-03-15T00:11:06.689Z,93339.01
2018-03-15T00:13:34.267Z,93334.23
2018-03-15T00:16:01.916Z,93329.92
2018-03-15T00:18:29.494Z,93332.50
2018-03-15T00:20:57.134Z,93325.23
2018-03-15T00:23:24.733Z,93322.02
2018-03-15T00:25:52.397Z,93319.15
2018-03-15T00:28:20.056Z,93321.23
2018-03-15T00:30:47.642Z,93319.33
2018-03-15T00:33:15.312Z,93314.17
2018-03-15T00:35:42.948Z,93313.87
2018-03-15T00:38:10.585Z,93317.35
2018-03-15T00:40:38.205Z,93310.78
2018-03-15T00:43:05.840Z,93312.89
2018-03-15T00:45:33.431Z,93299.73
2018-03-15T00:48:01.078Z,93300.92
2018-03-15T00:50:28.708Z,93300.08
2018-03-15T00:52:56.313Z,93292.91
2018-03-15T00:55:23.977Z,93288.23
2018-03-15T00:57:51.613Z,93288.38
2018-03-15T01:00:19.293Z,93280.14
2018-03-15T01:02:46.949Z,93282.47
2018-03-15T01:05:14.584Z,93282.19
2018-03-15T01:07:42.264Z,93281.45
2018-03-15T01:10:09.853Z,93281.00
2018-03-15T01:12:37.476Z,93276.49
2018-03-15T01:15:05.133Z,93268.48
2018-03-15T01:17:32.782Z,93270.75
2018-03-15T01:20:00.385Z,93266.14
2018-03-15T01:22:28.049Z,93266.28
2018-03-15T01:24:55.687Z,93261.46
2018-03-15T01:27:23.332Z,93252.93
2018-03-15T01:29:50.945Z,93247.55
2018-03-15T01:32:18.609Z,93240.55
2018-03-15T01:34:46.252Z,93239.94
2018-03-15T01:37:13.874Z,93235.45
2018-03-15T01:39:41.513Z,93234.97
2018-03-15T01:42:09.100Z,93227.44
2018-03-15T01:44:36.845Z,93223.59
2018-03-15T01:47:04.453Z,93221.47
2018-03-15T01:49:32.072Z,93221.33
2018-03-15T01:51:59.736Z,93212.75
2018-03-15T01:54:27.345Z,93207.08
2018-03-15T01:56:54.976Z,93199.30
2018-03-15T01:59:22.588Z,93195.17
2018-03-15T02:01:50.243Z,93184.50
2018-03-15T02:04:17.855Z,93188.55
2018-03-15T02:06:45.494Z,93189.34
2018-03-15T02:09:13.080Z,93174.75
2018-03-15T02:11:40.706Z,93167.80
2018-03-15T02:14:08.360Z,93167.23
2018-03-15T02:16:35.949Z,93159.50
2018-03-15T02:19:03.594Z,93162.27
2018-03-15T02:21:31.242Z,93160.62
2018-03-15T02:23:58.832Z,93156.58
2018-03-15T02:26:26.478Z,93156.95
2018-03-15T02:28:54.087Z,93153.73
2018-03-15T02:31:21.740Z,93156.37
2018-03-15T02:33:49.349Z,93153.88
2018-03-15T02:36:17.008Z,93151.98
2018-03-15T02:38:45.092Z,93144.23
2018-03-15T02:41:12.724Z,93142.78
2018-03-15T02:43:40.349Z,93144.81
2018-03-15T02:46:07.982Z,93142.44
2018-03-15T02:48:35.798Z,93143.81
2018-03-15T02:51:03.405Z,93132.87
2018-03-15T02:53:31.019Z,93130.31
2018-03-15T02:55:58.709Z,93127.55
2018-03-15T02:58:26.324Z,93128.42
2018-03-15T03:00:53.903Z,93128.25
2018-03-15T03:03:21.596Z,93128.28
2018-03-15T03:05:49.174Z,93128.53
2018-03-15T03:08:16.841Z,93123.44
2018-03-15T03:10:44.496Z,93136.19
2018-03-15T03:13:12.136Z,93138.12
2018-03-15T03:15:39.771Z,93140.51
2018-03-15T03:18:07.416Z,93139.26
2018-03-15T03:20:35.028Z,93144.11
2018-03-15T03:23:02.687Z,93139.92
2018-03-15T03:25:30.272Z,93144.85
2018-03-15T03:27:57.904Z,93150.45
2018-03-15T03:30:25.543Z,93146.24
2018-03-15T03:32:53.135Z,93144.86
2018-03-15T03:35:20.766Z,93137.97
2018-03-15T03:37:48.379Z,93134.01
2018-03-15T03:40:16.034Z,93133.80
2018-03-15T03:42:43.652Z,93141.13
2018-03-15T03:45:11.237Z,93144.36
2018-03-15T03:47:38.885Z,93139.84
2018-03-15T03:50:06.541Z,93136.53
2018-03-15T03:52:34.155Z,93135.63
2018-03-15T03:55:01.810Z,93134.34
2018-03-15T03:57:29.414Z,93136.89
2018-03-15T03:59:57.077Z,93142.01
2018-03-15T04:02:24.697Z,93146.27
2018-03-15T04:04:52.356Z,93146.47
2018-03-15T04:07:20.003Z,93146.31
2018-03-15T04:09:47.665Z,93141.27
2018-03-15T04:12:15.283Z,93147.11
2018-03-15T04:14:42.956Z,93147.16
2018-03-15T04:17:10.604Z,93146.47
2018-03-15T04:19:38.216Z,93148.05
2018-03-15T04:22:05.869Z,93142.44
2018-03-15T04:24:33.454Z,93149.69
2018-03-15T04:27:01.082Z,93154.03
2018-03-15T04:29:28.698Z,93151.50
2018-03-15T04:31:56.367Z,93151.00
2018-03-15T04:34:24.012Z,93138.34
2018-03-15T04:36:51.611Z,93145.67
2018-03-15T04:39:19.261Z,93147.25
2018-03-15T04:41:46.851Z,93148.41
2018-03-15T04:44:14.497Z,93151.52
2018-03-15T04:46:42.152Z,93153.19
2018-03-15T04:49:09.727Z,93143.80
2018-03-15T04:51:37.369Z,93141.08
2018-03-15T04:54:04.974Z,93136.16
2018-03-15T04:56:32.632Z,93145.51
2018-03-15T04:59:00.286Z,93147.55
2018-03-15T05:01:27.883Z,93152.98
2018-03-15T05:03:55.600Z,93151.19
2018-03-15T05:06:23.196Z,93150.80
2018-03-15T05:08:50.886Z,93147.05
2018-03-15T05:11:18.525Z,93152.92
2018-03-15T05:13:46.138Z,93152.39
2018-03-15T05:16:13.807Z,93150.93
2018-03-15T05:18:41.450Z,93152.02
2018-03-15T05:21:09.195Z,93141.68
2018-03-15T05:23:36.829Z,93142.84
2018-03-15T05:26:04.516Z,93142.16
2018-03-15T05:28:32.172Z,93145.11
2018-03-15T05:30:59.874Z,93149.13
2018-03-15T05:33:27.546Z,93150.03
2018-03-15T05:35:55.211Z,93149.20
2018-03-15T05:38:22.806Z,93146.52
2018-03-15T05:40:50.489Z,93141.23
2018-03-15T05:43:18.102Z,93143.14
2018-03-15T05:45:45.779Z,93132.05
2018-03-15T05:48:13.450Z,93127.91
2018-03-15T05:50:41.117Z,93122.08
2018-03-15T05:53:08.714Z,93123.92
2018-03-15T05:55:36.401Z,93121.18
2018-03-15T05:58:04.093Z,93121.05
2018-03-15T06:00:31.775Z,93122.86
2018-03-15T06:02:59.421Z,93120.09
2018-03-15T06:05:27.072Z,93132.02
2018-03-15T06:07:54.746Z,93137.82
2018-03-15T06:10:22.370Z,93129.08
2018-03-15T06:12:50.042Z,93129.55
2018-03-15T06:15:17.678Z,93124.59
2018-03-15T06:17:45.366Z,93119.42
2018-03-15T06:20:13.015Z,93114.47
2018-03-15T06:22:40.633Z,93114.04
2018-03-15T06:25:08.284Z,93112.11
2018-03-15T06:27:35.933Z,93110.37
2018-03-15T06:30:03.695Z,93104.06
2018-03-15T06:32:31.350Z,93104.70
2018-03-15T06:34:58.967Z,93105.38
2018-03-15T06:37:26.580Z,93112.77
2018-03-15T06:39:54.293Z,93110.55
2018-03-15T06:42:21.921Z,93107.34
2018-03-15T06:44:49.647Z,93111.61
2018-03-15T06:47:17.285Z,93102.83
2018-03-15T06:49:44.941Z,93096.43
2018-03-15T06:52:12.713Z,93095.86
2018-03-15T06:54:40.484Z,93095.30
2018-03-15T06:57:08.155Z,93088.63
2018-03-15T06:59:35.843Z,93096.55
2018-03-15T07:02:04.800Z,93090.38
2018-03-15T07:04:32.403Z,93100.72
2018-03-15T07:07:00.191Z,93103.34
2018-03-15T07:09:27.911Z,93101.59
2018-03-15T07:11:55.583Z,93098.64
2018-03-15T07:14:23.200Z,93097.42
2018-03-15T07:16:50.916Z,93095.22
2018-03-15T07:19:18.599Z,93090.94
2018-03-15T07:21:46.664Z,93087.16
2018-03-15T07:24:14.349Z,93084.72
2018-03-15T07:26:42.020Z,93081.87
2018-03-15T07:29:09.616Z,93088.34
2018-03-15T07:31:37.344Z,93084.28
2018-03-15T07:34:05.032Z,93074.76
2018-03-15T07:36:32.694Z,93073.84
2018-03-15T07:39:00.343Z,93069.66
2018-03-15T07:41:28.014Z,93069.41
2018-03-15T07:43:55.656Z,93077.33
2018-03-15T07:46:23.323Z,93076.68
2018-03-15T07:48:50.978Z,93063.22
2018-03-15T07:51:18.732Z,93053.91
2018-03-15T07:53:46.354Z,93039.87
2018-03-15T07:56:13.963Z,93034.22
2018-03-15T07:58:41.609Z,93022.34
2018-03-15T08:01:09.202Z,93020.98
2018-03-15T08:03:36.853Z,93014.37
2018-03-15T08:06:04.491Z,93015.70
2018-03-15T08:08:32.199Z,93010.34
2018-03-15T08:11:00.889Z,93010.66
2018-03-15T08:13:28.570Z,93009.70
2018-03-15T08:15:56.247Z,93006.45
2018-03-15T08:18:23.946Z,92997.32
2018-03-15T08:20:51.681Z,92999.64
2018-03-15T08:23:19.356Z,92993.41
2018-03-15T08:25:46.963Z,92992.73
2018-03-15T08:28:14.622Z,92986.04
2018-03-15T08:30:42.281Z,92985.53
2018-03-15T08:33:10.047Z,92980.80
2018-03-15T08:35:37.800Z,92982.47
2018-03-15T08:38:05.592Z,92981.96
2018-03-15T08:40:33.258Z,92985.53
2018-03-15T08:43:00.865Z,92977.00
2018-03-15T08:45:28.551Z,92975.50
2018-03-15T08:47:56.225Z,92975.97
2018-03-15T08:50:23.979Z,92976.20
2018-03-15T08:52:51.732Z,92974.83
2018-03-15T08:55:19.469Z,92970.38
2018-03-15T08:57:47.114Z,92962.42
2018-03-15T09:00:14.805Z,92965.86
2018-03-15T09:02:42.413Z,92966.14
2018-03-15T09:05:10.097Z,92965.21
2018-03-15T09:07:37.844Z,92969.77
2018-03-15T09:10:05.513Z,92960.05
2018-03-15T09:12:33.142Z,92941.93
2018-03-15T09:15:00.782Z,92938.04
2018-03-15T09:17:28.501Z,92931.95
2018-03-15T09:19:56.250Z,92922.45
2018-03-15T09:22:23.915Z,92914.55
2018-03-15T09:24:51.550Z,92903.69
2018-03-15T09:27:19.199Z,92897.86
2018-03-15T09:29:46.814Z,92903.17
2018-03-15T09:32:14.509Z,92904.74
2018-03-15T09:34:42.135Z,92904.52
2018-03-15T09:37:09.807Z,92902.14
2018-03-15T09:39:37.470Z,92892.16
2018-03-15T09:42:05.166Z,92889.87
2018-03-15T09:44:32.838Z,92886.41
2018-03-15T09:47:00.553Z,92880.26
2018-03-15T09:49:28.171Z,92882.45
2018-03-15T09:51:55.847Z,92871.00
2018-03-15T09:54:23.511Z,92874.13
2018-03-15T09:56:51.186Z,92875.78
2018-03-15T09:59:18.861Z,92869.31
2018-03-15T10:01:46.489Z,92864.33
2018-03-15T10:04:14.156Z,92863.92
2018-03-15T10:06:41.839Z,92855.05
2018-03-15T10:09:09.708Z,92847.20
2018-03-15T10:11:37.356Z,92839.69
2018-03-15T10:14:05.103Z,92842.81
2018-03-15T10:16:32.726Z,92837.69
2018-03-15T10:19:00.465Z,92839.20
2018-03-15T10:21:28.155Z,92836.41
2018-03-15T10:23:55.784Z,92837.27
2018-03-15T10:26:23.638Z,92832.11
2018-03-15T10:28:51.256Z,92835.98
2018-03-15T10:31:18.930Z,92826.86
2018-03-15T10:33:46.578Z,92824.30
2018-03-15T10:36:14.252Z,92818.92
2018-03-15T10:38:41.900Z,92818.42
2018-03-15T10:41:09.609Z,92812.84
2018-03-15T10:43:38.199Z,92806.14
2018-03-15T10:46:05.854Z,92808.00
2018-03-15T10:48:33.550Z,92794.34
2018-03-15T10:51:01.184Z,92797.29
2018-03-15T10:53:28.870Z,92789.91
2018-03-15T10:55:56.508Z,92788.83
2018-03-15T10:58:24.185Z,92786.62
2018-03-15T11:00:57.484Z,92779.04
2018-03-15T11:03:30.800Z,92768.78
2018-03-15T11:06:03.943Z,92770.13
2018-03-15T11:08:35.625Z,92761.44
2018-03-15T11:11:03.314Z,92757.30
2018-03-15T11:13:31.062Z,92756.16
2018-03-15T11:15:58.704Z,92748.50
2018-03-15T11:18:26.381Z,92752.68
2018-03-15T11:20:54.010Z,92747.95
2018-03-15T11:23:21.696Z,92745.81
2018-03-15T11:25:49.433Z,92737.69
2018-03-15T11:28:17.113Z,92737.61
2018-03-15T11:30:44.834Z,92729.20
2018-03-15T11:33:12.496Z,92724.40
2018-03-15T11:35:40.243Z,92719.91
2018-03-15T11:38:07.962Z,92709.46
2018-03-15T11:40:35.598Z,92707.63
2018-03-15T11:43:03.211Z,92701.20
2018-03-15T11:45:30.929Z,92694.27
2018-03-15T11:47:58.610Z,92686.81
2018-03-15T11:50:26.351Z,92691.40
2018-03-15T11:52:53.995Z,92681.78
2018-03-15T11:55:21.668Z,92691.50
2018-03-15T11:57:49.329Z,92684.06
2018-03-15T12:00:17.040Z,92673.88
2018-03-15T12:02:44.892Z,92673.34
2018-03-15T12:05:12.585Z,92672.21
2018-03-15T12:07:40.260Z,92667.93
2018-03-15T12:10:07.940Z,92664.62
2018-03-15T12:12:35.614Z,92661.89
2018-03-15T12:15:03.335Z,92659.85
2018-03-15T12:17:30.980Z,92659.20
2018-03-15T12:19:58.640Z,92658.37
2018-03-15T12:22:26.217Z,92648.59
2018-03-15T12:24:54.140Z,92648.98
2018-03-15T12:27:22.611Z,92634.56
2018-03-15T12:29:50.270Z,92632.98
2018-03-15T12:32:17.950Z,92634.73
2018-03-15T12:34:45.692Z,92627.27
2018-03-15T12:37:13.327Z,92627.38
2018-03-15T12:39:41.014Z,92623.76
2018-03-15T12:42:08.684Z,92617.17
2018-03-15T12:44:36.318Z,92616.06
2018-03-15T12:47:04.186Z,92606.91
2018-03-15T12:49:32.440Z,92603.12
2018-03-15T12:52:00.089Z,92602.93
2018-03-15T12:54:27.794Z,92603.50
2018-03-15T12:56:55.435Z,92591.98
2018-03-15T12:59:23.144Z,92586.73
2018-03-15T13:01:50.953Z,92591.08
2018-03-15T13:04:18.662Z,92590.81
2018-03-15T13:06:46.290Z,92588.30
2018-03-15T13:09:13.974Z,92590.27
2018-03-15T13:11:41.674Z,92599.69
2018-03-15T13:14:09.305Z,92592.58
2018-03-15T13:16:36.929Z,92582.03
2018-03-15T13:19:04.635Z,92572.94
2018-03-15T13:21:32.271Z,92564.00
2018-03-15T13:23:59.932Z,92566.12
2018-03-15T13:26:27.532Z,92558.91
2018-03-15T13:28:55.204Z,92557.13
2018-03-15T13:31:22.873Z,92561.35
2018-03-15T13:33:50.547Z,92554.90
2018-03-15T13:36:18.209Z,92560.18
2018-03-15T13:38:45.902Z,92550.92
2018-03-15T13:41:13.516Z,92547.81
2018-03-15T13:43:41.156Z,92548.52
2018-03-15T13:46:08.808Z,92547.37
2018-03-15T13:48:37.383Z,92539.41
2018-03-15T13:51:05.156Z,92528.83
2018-03-15T13:53:32.821Z,92530.01
2018-03-15T13:56:00.464Z,92530.40
2018-03-15T13:58:28.141Z,92523.37
2018-03-15T14:00:55.823Z,92526.29
2018-03-15T14:03:23.470Z,92529.44
2018-03-15T14:05:51.139Z,92524.02
2018-03-15T14:08:18.764Z,92529.63
2018-03-15T14:10:46.438Z,92526.02
2018-03-15T14:13:14.053Z,92534.06
2018-03-15T14:15:41.730Z,92525.22
2018-03-15T14:18:09.419Z,92518.08
2018-03-15T14:20:37.047Z,92521.04
2018-03-15T14:23:04.726Z,92506.52
2018-03-15T14:25:32.380Z,92504.30
2018-03-15T14:28:00.065Z,92512.12
2018-03-15T14:30:27.687Z,92513.43
2018-03-15T14:32:56.160Z,92511.55
2018-03-15T14:35:24.180Z,92504.91
2018-03-15T14:37:51.768Z,92501.72
2018-03-15T14:40:19.429Z,92512.78
2018-03-15T14:42:47.113Z,92511.78
2018-03-15T14:45:14.806Z,92517.63
2018-03-15T14:47:42.457Z,92520.59
2018-03-15T14:50:10.129Z,92512.46
2018-03-15T14:52:38.569Z,92513.12
2018-03-15T14:55:06.237Z,92511.77
2018-03-15T14:57:33.900Z,92512.05
2018-03-15T15:00:02.422Z,92503.72
2018-03-15T15:02:31.008Z,92499.81
2018-03-15T15:04:58.618Z,92511.02
2018-03-15T15:07:26.318Z,92506.96
2018-03-15T15:09:54.012Z,92517.81
2018-03-15T15:12:21.729Z,92512.27
2018-03-15T15:14:49.427Z,92512.70
2018-03-15T15:17:17.072Z,92512.06
2018-03-15T15:19:44.693Z,92509.72
2018-03-15T15:22:12.362Z,92512.72
2018-03-15T15:24:39.969Z,92515.08
2018-03-15T15:27:07.675Z,92509.90
2018-03-15T15:29:35.283Z,92513.62
2018-03-15T15:32:02.981Z,92509.34
2018-03-15T15:34:30.592Z,92515.08
2018-03-15T15:36:58.199Z,92510.89
2018-03-15T15:39:25.861Z,92513.82
2018-03-15T15:41:53.566Z,92510.02
2018-03-15T15:44:21.179Z,92515.73
2018-03-15T15:46:48.832Z,92507.09
2018-03-15T15:49:16.560Z,92504.84
2018-03-15T15:51:44.300Z,92498.30
2018-03-15T15:54:12.093Z,92496.69
2018-03-15T15:56:40.535Z,92496.23
2018-03-15T15:59:08.238Z,92487.97
2018-03-15T16:01:35.939Z,92490.72
2018-03-15T16:04:03.727Z,92483.09
2018-03-15T16:06:31.464Z,92489.55
2018-03-15T16:09:00.071Z,92496.11
2018-03-15T16:11:27.784Z,92500.21
2018-03-15T16:13:55.527Z,92496.34
2018-03-15T16:16:23.281Z,92499.58
2018-03-15T16:18:51.957Z,92497.88
2018-03-15T16:21:19.807Z,92504.77
2018-03-15T16:23:47.465Z,92510.47
2018-03-15T16:26:15.077Z,92510.59
2018-03-15T16:28:42.858Z,92508.30
2018-03-15T16:31:10.523Z,92518.92
2018-03-15T16:33:38.268Z,92518.25
2018-03-15T16:36:06.026Z,92529.36
2018-03-15T16:38:33.730Z,92526.80
2018-03-15T16:41:01.435Z,92533.95
2018-03-15T16:43:29.102Z,92529.39
2018-03-15T16:45:56.847Z,92533.59
2018-03-15T16:48:26.042Z,92537.20
2018-03-15T16:50:53.733Z,92544.31
2018-03-15T16:53:21.429Z,92545.10
2018-03-15T16:55:49.320Z,92547.30
2018-03-15T16:58:18.979Z,92553.69
2018-03-15T17:00:46.736Z,92555.92
2018-03-15T17:03:14.391Z,92557.23
2018-03-15T17:05:42.183Z,92562.13
2018-03-15T17:08:09.803Z,92573.77
2018-03-15T17:10:37.577Z,92573.01
2018-03-15T17:13:05.266Z,92590.91
2018-03-15T17:15:32.937Z,92582.35
2018-03-15T17:18:00.584Z,92592.14
2018-03-15T17:20:28.288Z,92594.88
2018-03-15T17:22:55.912Z,92594.97
2018-03-15T17:25:23.577Z,92595.88
2018-03-15T17:27:51.237Z,92602.42
2018-03-15T17:30:18.899Z,92597.48
2018-03-15T17:32:46.570Z,92607.47
2018-03-15T17:35:14.194Z,92603.38
2018-03-15T17:37:41.955Z,92606.05
2018-03-15T17:40:09.691Z,92607.98
2018-03-15T17:42:37.423Z,92612.52
2018-03-15T17:45:05.073Z,92609.55
2018-03-15T17:47:32.690Z,92607.19
2018-03-15T17:50:00.373Z,92612.00
2018-03-15T17:52:29.158Z,92604.86
2018-03-15T17:54:56.764Z,92613.03
2018-03-15T17:57:24.433Z,92598.66
2018-03-15T17:59:52.091Z,92602.64
2018-03-15T18:02:19.735Z,92606.94
2018-03-15T18:04:47.446Z,92599.34
2018-03-15T18:07:15.725Z,92600.27
2018-03-15T18:09:43.444Z,92598.34
2018-03-15T18:12:11.096Z,92602.54
2018-03-15T18:14:38.731Z,92597.26
2018-03-15T18:17:06.393Z,92600.39
2018-03-15T18:19:34.982Z,92598.83
2018-03-15T18:22:02.628Z,92594.78
2018-03-15T18:24:30.289Z,92595.58
2018-03-15T18:26:57.936Z,92595.89
2018-03-15T18:29:25.661Z,92589.17
2018-03-15T18:31:53.367Z,92595.45
2018-03-15T18:34:21.029Z,92599.56
2018-03-15T18:36:48.701Z,92596.27
2018-03-15T18:39:16.407Z,92595.73
2018-03-15T18:41:44.197Z,92597.17
2018-03-15T18:44:11.902Z,92598.66
2018-03-15T18:46:39.831Z,92595.88
2018-03-15T18:49:07.787Z,92597.17
2018-03-15T18:51:35.463Z,92602.92
2018-03-15T18:54:03.121Z,92601.55
2018-03-15T18:56:30.827Z,92599.91
2018-03-15T18:58:58.532Z,92591.66
2018-03-15T19:01:26.289Z,92589.03
2018-03-15T19:03:53.982Z,92591.85
2018-03-15T19:06:21.623Z,92591.42
2018-03-15T19:08:49.312Z,92595.58
2018-03-15T19:11:17.077Z,92593.61
2018-03-15T19:13:44.791Z,92601.13
2018-03-15T19:16:12.410Z,92607.62
2018-03-15T19:18:40.131Z,92608.37
2018-03-15T19:21:07.814Z,92601.13
2018-03-15T19:23:35.485Z,92600.46
2018-03-15T19:26:03.143Z,92599.64
2018-03-15T19:28:30.896Z,92600.22
2018-03-15T19:30:58.560Z,92596.44
2018-03-15T19:33:26.177Z,92597.92
2018-03-15T19:35:53.894Z,92594.08
2018-03-15T19:38:21.587Z,92598.25
2018-03-15T19:40:49.199Z,92590.44
2018-03-15T19:43:16.939Z,92587.90
2018-03-15T19:45:44.572Z,92584.75
2018-03-15T19:48:12.272Z,92582.19
2018-03-15T19:50:39.940Z,92586.16
2018-03-15T19:53:07.610Z,92588.53
2018-03-15T19:55:35.319Z,92592.03
2018-03-15T19:58:03.061Z,92589.92
2018-03-15T20:00:30.728Z,92594.13
2018-03-15T20:02:58.520Z,92590.16
2018-03-15T20:05:26.169Z,92594.63
2018-03-15T20:07:53.827Z,92601.57
2018-03-15T20:10:21.497Z,92600.00
2018-03-15T20:12:49.202Z,92601.02
2018-03-15T20:15:16.860Z,92604.66
2018-03-15T20:17:44.586Z,92610.81
2018-03-15T20:20:12.244Z,92613.34
2018-03-15T20:22:45.437Z,92616.43
2018-03-15T20:25:13.078Z,92620.97
2018-03-15T20:27:46.307Z,92616.45
2018-03-15T20:30:13.916Z,92625.25
2018-03-15T20:32:47.107Z,92623.34
2018-03-15T20:35:14.794Z,92619.91
2018-03-15T20:37:42.470Z,92616.91
2018-03-15T20:40:15.509Z,92623.48
2018-03-15T20:42:43.177Z,92621.73
2018-03-15T20:45:16.257Z,92619.59
2018-03-15T20:47:49.546Z,92623.53
2018-03-15T20:50:17.383Z,92620.94
2018-03-15T20:52:45.039Z,92621.28
2018-03-15T20:55:12.699Z,92618.30
2018-03-15T20:57:40.710Z,92619.12
2018-03-15T21:00:08.413Z,92607.97
2018-03-15T21:02:36.778Z,92603.47
2018-03-15T21:05:04.529Z,92601.09
2018-03-15T21:07:32.179Z,92597.17
2018-03-15T21:10:00.184Z,92600.19
2018-03-15T21:12:27.924Z,92606.92
2018-03-15T21:14:55.916Z,92607.98
2018-03-15T21:17:24.062Z,92600.16
2018-03-15T21:19:53.239Z,92602.11
2018-03-15T21:22:20.935Z,92602.97
2018-03-15T21:24:48.631Z,92605.45
2018-03-15T21:27:16.322Z,92600.55
2018-03-15T21:29:44.143Z,92606.66
2018-03-15T21:32:12.128Z,92607.98
2018-03-15T21:34:39.848Z,92601.03
2018-03-15T21:37:07.610Z,92603.38
2018-03-15T21:39:35.310Z,92607.36
2018-03-15T21:42:02.966Z,92603.29
2018-03-15T21:44:30.652Z,92602.72
2018-03-15T21:46:58.443Z,92602.50
2018-03-15T21:49:26.260Z,92603.38
2018-03-15T21:51:53.936Z,92595.78
2018-03-15T21:54:21.966Z,92596.94
2018-03-15T21:56:49.671Z,92600.30
2018-03-15T21:59:17.323Z,92591.69
2018-03-15T22:01:44.925Z,92591.34
2018-03-15T22:04:12.710Z,92596.61
2018-03-15T22:06:40.477Z,92591.41
2018-03-15T22:09:08.165Z,92592.02
2018-03-15T22:11:35.774Z,92583.78
2018-03-15T22:14:03.429Z,92582.33
2018-03-15T22:16:31.128Z,92585.52
2018-03-15T22:18:58.821Z,92584.50
2018-03-15T22:21:26.537Z,92591.08
2018-03-15T22:23:54.156Z,92590.03
2018-03-15T22:26:21.821Z,92585.76
2018-03-15T22:28:49.438Z,92579.80
2018-03-15T22:31:17.110Z,92576.39
2018-03-15T22:33:44.707Z,92567.64
2018-03-15T22:36:12.331Z,92569.06
2018-03-15T22:38:39.952Z,92572.03
2018-03-15T22:41:07.592Z,92561.05
2018-03-15T22:43:35.311Z,92559.20
2018-03-15T22:46:02.942Z,92567.75
2018-03-15T22:48:30.586Z,92575.66
2018-03-15T22:50:58.285Z,92581.44
2018-03-15T22:53:25.929Z,92576.39
2018-03-15T22:55:53.562Z,92573.64
2018-03-15T22:58:21.164Z,92568.55
2018-03-15T23:00:48.832Z,92565.69
2018-03-15T23:03:16.452Z,92569.89
2018-03-15T23:05:44.113Z,92564.85
2018-03-15T23:08:11.754Z,92555.76
2018-03-15T23:10:39.497Z,92554.64
2018-03-15T23:13:07.082Z,92565.35
2018-03-15T23:15:34.743Z,92561.48
2018-03-15T23:18:02.499Z,92554.44
2018-03-15T23:20:30.202Z,92547.54
2018-03-15T23:22:57.814Z,92539.02
2018-03-15T23:25:25.474Z,92537.63
2018-03-15T23:27:53.136Z,92546.58
2018-03-15T23:30:20.805Z,92551.05
2018-03-15T23:32:48.397Z,92552.08
2018-03-15T23:35:16.073Z,92547.03
2018-03-15T23:37:43.676Z,92556.79
2018-03-15T23:40:11.305Z,92559.69
2018-03-15T23:42:38.946Z,92559.12
2018-03-15T23:45:06.589Z,92565.47
2018-03-15T23:47:34.236Z,92565.19
2018-03-15T23:50:01.881Z,92574.26
2018-03-15T23:52:29.465Z,92571.47
2018-03-15T23:54:57.058Z,92568.83
2018-03-15T23:57:24.681Z,92564.88
2018-03-15T23:59:52.315Z,92564.23
